ENOV/HOV METAR and TAF weather

Enter ICAO airport designator
Station Type Date Time Source
ENOV METAR 2022/01/24 22:50 UTC NOAA

ENOV 242250Z 21007KT 170V300 9999 -SHRA FEW018 SCT028 BKN040 03/M02 Q1025 RMK WIND 2090FT 27020KT


Station Type Date Time Source
ENOV Decoded METAR 2022/01/24 22:50 UTC NOAA

Orsta-Volda / Hovden, Norway (ENOV) 62-11N 006-04E 74M
Jan 24, 2022 - 05:50 PM EST / 2022.01.24 2250 UTC
Wind: from the SSW (210 degrees) at 8 MPH (7 KT) (direction variable):0
Visibility: greater than 7 mile(s):0
Sky conditions: mostly cloudy
Weather: light rain showers
Temperature: 37 F (3 C)
Dew Point: 28 F (-2 C)
Relative Humidity: 69%
Pressure (altimeter): 30.27 in. Hg (1025 hPa)
ob: ENOV 242250Z 21007KT 170V300 9999 -SHRA FEW018 SCT028 BKN040 03/M02 Q1025 RMK WIND 2090FT 27020KT
cycle: 23

Station Type Date Time Source
ENOV TAF UTC NOAA

Error!

Example: see airport list